Dinslaken/Schwarze Heide Airport

METAR EDLN TAF EDDL
1 °C
°C
-
°C
16m
Age
08:06:03
LT
07:06
UTC
0 ft

1,000

2,000

3,000

4,000

5,000

VV 0
LIFR
<?= Yii::t('app', 'Wind direction') ?> <?= Yii::t('app', 'of'); ?>
310°
17:32
Sunset
100%
Humidity
Wind shear
Closed/Snow
RWY visual range
RWY condition
Vert. visibility
Min. visibility
CAVOK
Trend
Correction
Special report
1042 hPa
QNH
METAR EDLN 060650Z AUTO 31005KT 0450 R31/0550N // VV/// 01/01 Q1042
Clear
4 kt
4 kt
08:00
LIFR
5 kt
09:00
LIFR
5 kt
10:00
LIFR
5 kt
11:00
LIFR
5 kt
12:00
IFR
5 kt
13:00
IFR
5 kt
14:00
IFR
5 kt
450 m
Visibility
0 ft
Ceiling
5 kt
Wind
metar-taf.com/EDLD

Metar-Taf.com

Visual decoder

We and third parties follow your internet behavior on our website with cookies. If you continue, we assume you agree with our cookie policy.